createdAt,value
2018-12-27T00:00:25.369Z,2.30
2018-12-27T00:02:55.038Z,4.93
2018-12-27T00:05:22.458Z,2.53
2018-12-27T00:07:50.898Z,2.50
2018-12-27T00:10:19.580Z,3.40
2018-12-27T00:12:48.175Z,1.93
2018-12-27T00:15:17.660Z,4.20
2018-12-27T00:17:46.482Z,1.87
2018-12-27T00:20:14.891Z,3.47
2018-12-27T00:22:43.733Z,2.10
2018-12-27T00:25:12.012Z,2.90
2018-12-27T00:27:40.624Z,1.90
2018-12-27T00:30:09.150Z,2.13
2018-12-27T00:32:37.777Z,2.43
2018-12-27T00:35:06.115Z,3.50
2018-12-27T00:37:35.056Z,7.30
2018-12-27T00:40:03.492Z,3.43
2018-12-27T00:42:32.329Z,2.17
2018-12-27T00:45:01.420Z,3.33
2018-12-27T00:47:29.816Z,3.17
2018-12-27T00:49:58.766Z,2.83
2018-12-27T00:52:27.383Z,3.00
2018-12-27T00:54:55.930Z,1.50
2018-12-27T00:57:24.529Z,1.80
2018-12-27T00:59:53.182Z,2.47
2018-12-27T01:02:21.593Z,4.57
2018-12-27T01:04:50.277Z,3.80
2018-12-27T01:07:19.278Z,2.13
2018-12-27T01:09:47.631Z,3.73
2018-12-27T01:12:16.028Z,2.70
2018-12-27T01:14:45.020Z,4.10
2018-12-27T01:17:13.671Z,4.40
2018-12-27T01:19:42.390Z,3.63
2018-12-27T01:22:10.923Z,2.87
2018-12-27T01:24:39.249Z,5.10
2018-12-27T01:27:08.095Z,2.67
2018-12-27T01:29:36.821Z,2.53
2018-12-27T01:32:05.190Z,7.20
2018-12-27T01:34:34.567Z,3.40
2018-12-27T01:37:03.491Z,3.23
2018-12-27T01:39:31.806Z,4.10
2018-12-27T01:42:00.449Z,3.67
2018-12-27T01:44:29.220Z,5.67
2018-12-27T01:46:57.504Z,8.27
2018-12-27T01:49:25.947Z,5.67
2018-12-27T01:51:55.310Z,10.73
2018-12-27T01:54:23.733Z,3.73
2018-12-27T01:56:52.356Z,5.47
2018-12-27T01:59:21.059Z,4.83
2018-12-27T02:01:49.463Z,4.50
2018-12-27T02:04:17.766Z,7.17
2018-12-27T02:06:46.327Z,5.47
2018-12-27T02:09:14.904Z,4.27
2018-12-27T02:11:43.234Z,8.13
2018-12-27T02:14:12.224Z,9.03
2018-12-27T02:16:41.046Z,8.90
2018-12-27T02:19:09.419Z,5.63
2018-12-27T02:21:38.135Z,5.07
2018-12-27T02:24:06.466Z,5.93
2018-12-27T02:26:34.832Z,6.77
2018-12-27T02:29:03.585Z,5.13
2018-12-27T02:31:32.193Z,6.90
2018-12-27T02:34:00.474Z,10.17
2018-12-27T02:36:29.156Z,9.57
2018-12-27T02:38:57.476Z,5.30
2018-12-27T02:41:25.919Z,8.13
2018-12-27T02:43:54.906Z,7.27
2018-12-27T02:46:23.231Z,5.17
2018-12-27T02:48:51.660Z,11.37
2018-12-27T02:51:20.308Z,3.33
2018-12-27T02:53:49.064Z,4.90
2018-12-27T02:56:17.372Z,6.10
2018-12-27T02:58:46.158Z,7.00
2018-12-27T03:01:14.538Z,8.57
2018-12-27T03:03:44.067Z,3.10
2018-12-27T03:06:11.754Z,8.03
2018-12-27T03:08:40.037Z,7.40
2018-12-27T03:11:08.392Z,6.50
2018-12-27T03:13:37.040Z,6.37
2018-12-27T03:16:05.361Z,9.43
2018-12-27T03:18:33.969Z,8.77
2018-12-27T03:21:03.094Z,10.17
2018-12-27T03:23:31.467Z,6.63
2018-12-27T03:25:59.851Z,7.13
2018-12-27T03:28:28.536Z,6.07
2018-12-27T03:30:57.166Z,8.07
2018-12-27T03:33:25.904Z,7.43
2018-12-27T03:35:54.893Z,9.23
2018-12-27T03:38:23.187Z,11.93
2018-12-27T03:40:51.540Z,11.23
2018-12-27T03:43:20.336Z,6.93
2018-12-27T03:45:48.602Z,7.27
2018-12-27T03:48:17.226Z,7.07
2018-12-27T03:50:45.773Z,8.07
2018-12-27T03:53:14.305Z,10.33
2018-12-27T03:55:42.966Z,4.87
2018-12-27T03:58:11.826Z,10.17
2018-12-27T04:00:40.407Z,7.33
2018-12-27T04:03:09.104Z,13.83
2018-12-27T04:05:37.839Z,13.73
2018-12-27T04:08:06.180Z,13.33
2018-12-27T04:10:34.639Z,9.93
2018-12-27T04:13:03.627Z,8.40
2018-12-27T04:15:31.981Z,7.13
2018-12-27T04:18:00.690Z,4.73
2018-12-27T04:20:29.992Z,7.30
2018-12-27T04:22:58.476Z,7.33
2018-12-27T04:25:26.993Z,12.13
2018-12-27T04:27:55.707Z,6.07
2018-12-27T04:30:24.365Z,4.67
2018-12-27T04:32:52.715Z,3.50
2018-12-27T04:35:21.343Z,12.17
2018-12-27T04:37:49.747Z,11.07
2018-12-27T04:40:18.241Z,12.53
2018-12-27T04:42:46.779Z,13.33
2018-12-27T04:45:15.549Z,7.47
2018-12-27T04:47:43.902Z,8.80
2018-12-27T04:50:12.676Z,5.57
2018-12-27T04:52:41.012Z,6.27
2018-12-27T04:55:09.408Z,7.80
2018-12-27T04:57:38.725Z,6.53
2018-12-27T05:00:07.999Z,6.43
2018-12-27T05:02:36.294Z,8.77
2018-12-27T05:05:05.089Z,6.23
2018-12-27T05:07:33.622Z,5.30
2018-12-27T05:10:02.107Z,11.80
2018-12-27T05:12:30.687Z,8.20
2018-12-27T05:14:59.021Z,9.33
2018-12-27T05:17:27.804Z,7.93
2018-12-27T05:19:56.581Z,6.87
2018-12-27T05:22:24.993Z,5.93
2018-12-27T05:24:53.302Z,9.23
2018-12-27T05:27:22.020Z,9.43
2018-12-27T05:29:50.381Z,12.97
2018-12-27T05:32:18.776Z,5.80
2018-12-27T05:34:47.770Z,6.60
2018-12-27T05:37:16.144Z,11.87
2018-12-27T05:39:44.473Z,10.17
2018-12-27T05:42:13.048Z,8.00
2018-12-27T05:44:41.366Z,5.60
2018-12-27T05:47:09.757Z,6.17
2018-12-27T05:49:38.936Z,6.10
2018-12-27T05:52:07.064Z,7.80
2018-12-27T05:54:35.750Z,9.73
2018-12-27T05:57:04.704Z,4.80
2018-12-27T05:59:33.693Z,6.30
2018-12-27T06:02:02.238Z,6.13
2018-12-27T06:04:33.889Z,7.90
2018-12-27T06:06:59.748Z,5.70
2018-12-27T06:09:28.113Z,9.80
2018-12-27T06:11:56.842Z,6.60
2018-12-27T06:14:25.291Z,11.33
2018-12-27T06:16:53.570Z,9.33
2018-12-27T06:19:22.560Z,5.73
2018-12-27T06:21:50.952Z,6.47
2018-12-27T06:24:19.361Z,5.53
2018-12-27T06:26:47.894Z,10.37
2018-12-27T06:29:16.183Z,9.93
2018-12-27T06:31:44.516Z,7.27
2018-12-27T06:34:13.286Z,7.67
2018-12-27T06:36:41.787Z,4.87
2018-12-27T06:39:10.277Z,4.50
2018-12-27T06:41:39.187Z,6.03
2018-12-27T06:44:07.703Z,5.50
2018-12-27T06:46:36.358Z,8.83
2018-12-27T06:49:05.119Z,7.03
2018-12-27T06:51:33.436Z,6.13
2018-12-27T06:54:01.999Z,7.07
2018-12-27T06:56:30.842Z,7.00
2018-12-27T06:58:59.542Z,11.20
2018-12-27T07:01:28.124Z,8.60
2018-12-27T07:03:56.735Z,7.90
2018-12-27T07:06:25.089Z,17.20
2018-12-27T07:08:53.798Z,5.20
2018-12-27T07:11:22.482Z,9.40
2018-12-27T07:13:50.840Z,13.50
2018-12-27T07:16:19.465Z,6.77
2018-12-27T07:18:48.077Z,11.97
2018-12-27T07:21:16.355Z,8.63
2018-12-27T07:23:44.783Z,4.70
2018-12-27T07:26:13.630Z,8.57
2018-12-27T07:28:42.021Z,6.27
2018-12-27T07:31:10.304Z,7.70
2018-12-27T07:33:39.271Z,10.77
2018-12-27T07:36:07.754Z,14.40
2018-12-27T07:38:36.689Z,20.47
2018-12-27T07:41:05.331Z,12.07
2018-12-27T07:43:33.861Z,17.30
2018-12-27T07:46:02.353Z,12.03
2018-12-27T07:48:30.741Z,12.57
2018-12-27T07:50:59.284Z,9.60
2018-12-27T07:53:27.665Z,11.10
2018-12-27T07:55:56.520Z,9.57
2018-12-27T07:58:25.035Z,7.67
2018-12-27T08:00:53.374Z,13.23
2018-12-27T08:03:22.284Z,9.50
2018-12-27T08:05:50.651Z,11.37
2018-12-27T08:08:19.000Z,9.53
2018-12-27T08:10:47.844Z,12.87
2018-12-27T08:13:16.519Z,11.23
2018-12-27T08:15:44.816Z,11.77
2018-12-27T08:18:13.445Z,16.07
2018-12-27T08:20:41.816Z,16.57
2018-12-27T08:23:10.158Z,10.77
2018-12-27T08:25:38.723Z,9.93
2018-12-27T08:28:07.047Z,14.20
2018-12-27T08:30:35.431Z,15.27
2018-12-27T08:33:04.008Z,12.17
2018-12-27T08:35:32.421Z,10.30
2018-12-27T08:38:00.918Z,10.33
2018-12-27T08:40:29.604Z,16.17
2018-12-27T08:42:57.948Z,11.23
2018-12-27T08:45:26.273Z,14.13
2018-12-27T08:47:55.045Z,13.90
2018-12-27T08:50:23.422Z,6.33
2018-12-27T08:52:51.755Z,5.47
2018-12-27T08:55:20.335Z,9.23
2018-12-27T08:57:48.828Z,8.50
2018-12-27T09:00:17.167Z,12.57
2018-12-27T09:02:46.087Z,9.50
2018-12-27T09:05:18.828Z,15.17
2018-12-27T09:07:43.013Z,15.17
2018-12-27T09:10:11.835Z,8.90
2018-12-27T09:12:40.378Z,6.90
2018-12-27T09:15:08.832Z,12.07
2018-12-27T09:17:37.724Z,8.73
2018-12-27T09:20:07.273Z,8.93
2018-12-27T09:22:35.756Z,11.33
2018-12-27T09:25:04.394Z,6.10
2018-12-27T09:27:33.177Z,8.57
2018-12-27T09:30:01.640Z,11.47
2018-12-27T09:32:30.448Z,5.60
2018-12-27T09:34:59.020Z,5.67
2018-12-27T09:37:27.357Z,7.33
2018-12-27T09:39:56.502Z,7.30
2018-12-27T09:42:24.832Z,6.20
2018-12-27T09:44:53.216Z,5.30
2018-12-27T09:47:21.940Z,4.93
2018-12-27T09:49:50.319Z,7.37
2018-12-27T09:52:18.651Z,5.60
2018-12-27T09:54:47.234Z,7.13
2018-12-27T09:57:15.760Z,4.73
2018-12-27T09:59:44.119Z,3.30
2018-12-27T10:02:13.438Z,3.83
2018-12-27T10:04:41.828Z,5.00
2018-12-27T10:07:10.827Z,7.20
2018-12-27T10:09:39.798Z,4.20
2018-12-27T10:12:08.174Z,2.83
2018-12-27T10:14:36.563Z,4.00
2018-12-27T10:17:05.079Z,4.83
2018-12-27T10:19:33.617Z,4.67
2018-12-27T10:22:01.985Z,5.33
2018-12-27T10:24:30.842Z,6.63
2018-12-27T10:26:59.215Z,13.50
2018-12-27T10:29:28.051Z,9.30
2018-12-27T10:31:56.933Z,4.83
2018-12-27T10:34:25.210Z,9.37
2018-12-27T10:36:53.515Z,3.70
2018-12-27T10:39:22.477Z,3.77
2018-12-27T10:41:50.804Z,5.53
2018-12-27T10:44:19.317Z,4.17
2018-12-27T10:46:48.226Z,4.37
2018-12-27T10:49:16.881Z,3.97
2018-12-27T10:51:45.477Z,3.93
2018-12-27T10:54:14.287Z,12.90
2018-12-27T10:56:42.620Z,6.70
2018-12-27T10:59:10.998Z,4.40
2018-12-27T11:01:39.879Z,3.70
2018-12-27T11:04:08.248Z,5.23
2018-12-27T11:06:36.784Z,4.00
2018-12-27T11:09:07.260Z,3.03
2018-12-27T11:11:35.764Z,6.77
2018-12-27T11:14:04.085Z,6.40
2018-12-27T11:16:32.591Z,4.67
2018-12-27T11:19:00.865Z,3.87
2018-12-27T11:21:29.244Z,4.63
2018-12-27T11:23:57.882Z,5.10
2018-12-27T11:26:26.198Z,7.60
2018-12-27T11:28:54.505Z,5.87
2018-12-27T11:31:23.226Z,4.23
2018-12-27T11:33:51.530Z,6.83
2018-12-27T11:36:19.884Z,4.20
2018-12-27T11:38:48.763Z,4.80
2018-12-27T11:41:17.086Z,4.00
2018-12-27T11:43:45.827Z,6.40
2018-12-27T11:46:15.080Z,6.70
2018-12-27T11:48:43.405Z,10.27
2018-12-27T11:51:12.135Z,6.73
2018-12-27T11:53:40.870Z,9.00
2018-12-27T11:56:09.293Z,5.63
2018-12-27T11:58:37.933Z,8.27
2018-12-27T12:01:06.925Z,6.87
2018-12-27T12:03:35.306Z,8.40
2018-12-27T12:06:03.695Z,8.27
2018-12-27T12:08:32.521Z,8.30
2018-12-27T12:11:01.160Z,7.17
2018-12-27T12:13:29.732Z,6.97
2018-12-27T12:15:58.419Z,6.47
2018-12-27T12:18:26.754Z,8.30
2018-12-27T12:20:55.587Z,6.60
2018-12-27T12:23:24.166Z,7.27
2018-12-27T12:25:52.760Z,4.80
2018-12-27T12:28:21.095Z,8.43
2018-12-27T12:30:49.752Z,9.10
2018-12-27T12:33:18.207Z,8.73
2018-12-27T12:35:46.493Z,6.97
2018-12-27T12:38:15.216Z,7.40
2018-12-27T12:40:44.038Z,4.90
2018-12-27T12:43:12.326Z,5.50
2018-12-27T12:45:41.102Z,8.33
2018-12-27T12:48:09.399Z,7.40
2018-12-27T12:50:37.856Z,6.83
2018-12-27T12:53:06.703Z,9.07
2018-12-27T12:55:35.098Z,7.43
2018-12-27T12:58:03.431Z,8.40
2018-12-27T13:00:32.291Z,10.13
2018-12-27T13:03:00.975Z,9.13
2018-12-27T13:05:29.561Z,8.80
2018-12-27T13:07:58.200Z,10.73
2018-12-27T13:10:26.681Z,7.87
2018-12-27T13:12:55.712Z,7.63
2018-12-27T13:15:24.562Z,8.57
2018-12-27T13:17:53.041Z,8.63
2018-12-27T13:20:21.767Z,10.73
2018-12-27T13:22:50.451Z,9.37
2018-12-27T13:25:18.750Z,7.43
2018-12-27T13:27:47.787Z,7.40
2018-12-27T13:30:17.427Z,8.30
2018-12-27T13:32:46.064Z,7.93
2018-12-27T13:35:14.487Z,7.77
2018-12-27T13:37:43.176Z,8.27
2018-12-27T13:40:11.491Z,6.67
2018-12-27T13:42:40.047Z,9.33
2018-12-27T13:45:08.921Z,11.60
2018-12-27T13:47:37.255Z,10.23
2018-12-27T13:50:06.216Z,10.13
2018-12-27T13:52:34.871Z,12.00
2018-12-27T13:55:03.312Z,10.67
2018-12-27T13:57:31.733Z,9.37
2018-12-27T14:00:00.287Z,8.87
2018-12-27T14:02:28.590Z,8.23
2018-12-27T14:04:56.896Z,7.83
2018-12-27T14:07:25.855Z,9.80
2018-12-27T14:09:54.195Z,8.07
2018-12-27T14:12:22.493Z,9.30
2018-12-27T14:14:51.909Z,9.13
2018-12-27T14:17:20.343Z,11.87
2018-12-27T14:19:48.668Z,7.67
2018-12-27T14:22:17.227Z,8.53
2018-12-27T14:24:45.708Z,10.30
2018-12-27T14:27:14.300Z,6.60
2018-12-27T14:29:43.095Z,6.33
2018-12-27T14:32:11.780Z,5.93
2018-12-27T14:34:40.435Z,7.67
2018-12-27T14:37:09.458Z,10.70
2018-12-27T14:39:38.094Z,7.77
2018-12-27T14:42:06.416Z,8.10
2018-12-27T14:44:35.371Z,9.13
2018-12-27T14:47:04.102Z,8.43
2018-12-27T14:49:32.590Z,9.73
2018-12-27T14:52:01.414Z,6.93
2018-12-27T14:54:29.902Z,5.93
2018-12-27T14:56:59.088Z,6.47
2018-12-27T14:59:26.846Z,8.10
2018-12-27T15:01:55.300Z,7.63
2018-12-27T15:04:23.628Z,7.43
2018-12-27T15:06:52.619Z,12.47
2018-12-27T15:09:20.923Z,9.20
2018-12-27T15:11:49.757Z,7.47
2018-12-27T15:14:18.498Z,7.07
2018-12-27T15:16:47.420Z,6.87
2018-12-27T15:19:15.869Z,7.27
2018-12-27T15:21:45.035Z,7.47
2018-12-27T15:24:13.386Z,6.13
2018-12-27T15:26:41.708Z,11.47
2018-12-27T15:29:10.602Z,8.63
2018-12-27T15:31:38.984Z,7.37
2018-12-27T15:34:07.385Z,9.73
2018-12-27T15:36:35.865Z,9.23
2018-12-27T15:39:06.271Z,9.50
2018-12-27T15:41:34.615Z,13.63
2018-12-27T15:44:03.331Z,10.67
2018-12-27T15:46:31.921Z,9.80
2018-12-27T15:49:00.396Z,9.87
2018-12-27T15:51:29.401Z,10.20
2018-12-27T15:53:57.747Z,13.07
2018-12-27T15:56:26.460Z,10.17
2018-12-27T15:58:55.280Z,9.07
2018-12-27T16:01:23.593Z,10.67
2018-12-27T16:03:51.916Z,13.00
2018-12-27T16:06:20.880Z,12.97
2018-12-27T16:08:49.871Z,12.93
2018-12-27T16:11:18.510Z,14.40
2018-12-27T16:13:47.085Z,12.30
2018-12-27T16:16:15.454Z,13.87
2018-12-27T16:18:44.271Z,11.37
2018-12-27T16:21:12.841Z,14.77
2018-12-27T16:23:41.152Z,14.13
2018-12-27T16:26:09.751Z,16.23
2018-12-27T16:28:38.736Z,16.27
2018-12-27T16:31:07.141Z,20.90
2018-12-27T16:33:35.645Z,18.13
2018-12-27T16:36:04.486Z,17.83
2018-12-27T16:38:32.893Z,16.17
2018-12-27T16:41:01.225Z,18.43
2018-12-27T16:43:29.915Z,16.60
2018-12-27T16:45:58.377Z,15.97
2018-12-27T16:48:26.988Z,15.70
2018-12-27T16:50:55.982Z,16.03
2018-12-27T16:53:24.409Z,16.63
2018-12-27T16:55:52.835Z,17.67
2018-12-27T16:58:21.728Z,20.83
2018-12-27T17:00:50.266Z,18.27
2018-12-27T17:03:18.543Z,18.27
2018-12-27T17:05:47.473Z,14.43
2018-12-27T17:08:16.047Z,17.13
2018-12-27T17:10:44.371Z,13.67
2018-12-27T17:13:13.374Z,14.07
2018-12-27T17:15:41.950Z,14.57
2018-12-27T17:18:10.460Z,16.20
2018-12-27T17:20:40.937Z,15.50
2018-12-27T17:23:09.425Z,20.63
2018-12-27T17:25:37.749Z,13.07
2018-12-27T17:28:06.556Z,14.73
2018-12-27T17:30:34.935Z,14.20
2018-12-27T17:33:03.279Z,11.60
2018-12-27T17:35:31.851Z,13.87
2018-12-27T17:38:00.529Z,12.77
2018-12-27T17:40:28.889Z,11.67
2018-12-27T17:42:57.745Z,17.90
2018-12-27T17:45:26.597Z,11.77
2018-12-27T17:47:54.637Z,14.47
2018-12-27T17:50:23.799Z,13.00
2018-12-27T17:52:52.112Z,22.70
2018-12-27T17:55:20.470Z,20.03
2018-12-27T17:57:49.240Z,15.17
2018-12-27T18:00:18.058Z,17.17
2018-12-27T18:02:46.494Z,14.23
2018-12-27T18:05:15.294Z,19.00
2018-12-27T18:07:43.609Z,15.13
2018-12-27T18:10:11.998Z,14.63
2018-12-27T18:12:40.732Z,13.47
2018-12-27T18:15:09.323Z,16.27
2018-12-27T18:17:37.700Z,13.53
2018-12-27T18:20:07.208Z,12.87
2018-12-27T18:22:36.061Z,13.50
2018-12-27T18:25:04.842Z,13.87
2018-12-27T18:27:33.338Z,13.57
2018-12-27T18:30:01.798Z,14.77
2018-12-27T18:32:30.522Z,13.70
2018-12-27T18:34:59.363Z,13.23
2018-12-27T18:37:27.679Z,12.53
2018-12-27T18:39:56.034Z,15.93
2018-12-27T18:42:24.950Z,13.50
2018-12-27T18:44:53.328Z,13.70
2018-12-27T18:47:21.933Z,16.93
2018-12-27T18:49:50.698Z,26.57
2018-12-27T18:52:19.244Z,20.27
2018-12-27T18:54:47.542Z,16.50
2018-12-27T18:57:16.448Z,20.47
2018-12-27T18:59:44.818Z,14.20
2018-12-27T19:02:13.114Z,16.00
2018-12-27T19:04:41.731Z,22.37
2018-12-27T19:07:10.253Z,26.37
2018-12-27T19:09:38.561Z,18.17
2018-12-27T19:12:18.547Z,21.10
2018-12-27T19:14:47.827Z,32.03
2018-12-27T19:17:21.351Z,21.20
2018-12-27T19:19:49.809Z,20.50
2018-12-27T19:22:31.100Z,22.97
2018-12-27T19:24:59.916Z,22.50
2018-12-27T19:27:28.800Z,21.07
2018-12-27T19:29:57.619Z,22.20
2018-12-27T19:32:25.916Z,26.10
2018-12-27T19:34:54.554Z,18.77
2018-12-27T19:37:23.212Z,20.27
2018-12-27T19:39:51.698Z,16.87
2018-12-27T19:42:20.292Z,18.27
2018-12-27T19:44:49.083Z,18.90
2018-12-27T19:47:17.644Z,12.70
2018-12-27T19:49:46.384Z,14.27
2018-12-27T19:52:15.160Z,14.33
2018-12-27T19:54:43.744Z,16.63
2018-12-27T19:57:12.678Z,13.83
2018-12-27T19:59:41.518Z,14.67
2018-12-27T20:02:10.163Z,15.20
2018-12-27T20:04:38.583Z,14.27
2018-12-27T20:07:07.106Z,15.13
2018-12-27T20:09:35.460Z,16.13
2018-12-27T20:12:03.814Z,11.47
2018-12-27T20:14:32.235Z,15.70
2018-12-27T20:17:00.551Z,19.20
2018-12-27T20:19:28.948Z,16.00
2018-12-27T20:21:57.857Z,14.40
2018-12-27T20:24:26.180Z,15.00
2018-12-27T20:26:54.734Z,29.17
2018-12-27T20:29:23.587Z,23.63
2018-12-27T20:31:51.911Z,17.43
2018-12-27T20:34:20.258Z,19.23
2018-12-27T20:36:49.027Z,15.93
2018-12-27T20:39:17.530Z,51.73
2018-12-27T20:41:45.856Z,41.23
2018-12-27T20:44:14.775Z,26.20
2018-12-27T20:46:43.372Z,39.50
2018-12-27T20:49:12.077Z,36.87
2018-12-27T20:51:41.132Z,29.07
2018-12-27T20:54:09.857Z,28.40
2018-12-27T20:56:38.272Z,26.00
2018-12-27T20:59:06.881Z,26.40
2018-12-27T21:01:35.522Z,35.03
2018-12-27T21:04:03.889Z,25.53
2018-12-27T21:06:32.626Z,34.60
2018-12-27T21:09:01.234Z,25.77
2018-12-27T21:11:29.551Z,24.80
2018-12-27T21:13:58.374Z,20.60
2018-12-27T21:16:26.714Z,21.73
2018-12-27T21:18:55.068Z,19.37
2018-12-27T21:21:23.981Z,19.30
2018-12-27T21:23:52.772Z,24.00
2018-12-27T21:26:21.282Z,19.93
2018-12-27T21:28:50.482Z,22.57
2018-12-27T21:31:18.860Z,20.70
2018-12-27T21:33:47.160Z,18.87
2018-12-27T21:36:15.770Z,17.40
2018-12-27T21:38:44.223Z,20.90
2018-12-27T21:41:12.984Z,29.90
2018-12-27T21:43:41.671Z,19.60
2018-12-27T21:46:10.046Z,26.77
2018-12-27T21:48:38.429Z,21.20
2018-12-27T21:51:07.108Z,20.23
2018-12-27T21:53:35.591Z,20.27
2018-12-27T21:56:03.961Z,21.87
2018-12-27T21:58:32.703Z,20.47
2018-12-27T22:01:01.082Z,20.93
2018-12-27T22:03:29.452Z,19.27
2018-12-27T22:05:58.156Z,19.60
2018-12-27T22:08:28.620Z,19.53
2018-12-27T22:10:55.286Z,20.20
2018-12-27T22:13:23.915Z,32.10
2018-12-27T22:15:52.217Z,25.57
2018-12-27T22:18:20.702Z,23.30
2018-12-27T22:20:49.339Z,27.93
2018-12-27T22:23:17.846Z,30.03
2018-12-27T22:25:46.318Z,22.77
2018-12-27T22:28:15.091Z,21.97
2018-12-27T22:30:43.695Z,28.30
2018-12-27T22:33:11.990Z,30.33
2018-12-27T22:35:40.984Z,24.87
2018-12-27T22:38:09.305Z,32.50
2018-12-27T22:40:37.648Z,28.30
2018-12-27T22:43:06.417Z,24.80
2018-12-27T22:45:34.866Z,18.40
2018-12-27T22:48:03.265Z,23.00
2018-12-27T22:50:32.022Z,20.83
2018-12-27T22:53:00.384Z,14.57
2018-12-27T22:55:28.707Z,25.90
2018-12-27T22:57:57.218Z,19.13
2018-12-27T23:00:30.694Z,14.50
2018-12-27T23:02:59.672Z,15.43
2018-12-27T23:05:27.970Z,19.97
2018-12-27T23:07:56.476Z,21.97
2018-12-27T23:10:25.182Z,17.80
2018-12-27T23:12:53.503Z,17.83
2018-12-27T23:15:21.898Z,16.97
2018-12-27T23:17:50.817Z,15.03
2018-12-27T23:20:19.353Z,15.17
2018-12-27T23:22:47.813Z,16.87
2018-12-27T23:25:16.516Z,17.63
2018-12-27T23:27:44.827Z,17.17
2018-12-27T23:30:13.395Z,13.50
2018-12-27T23:32:42.560Z,17.27
2018-12-27T23:35:10.927Z,14.97
2018-12-27T23:37:39.604Z,18.57
2018-12-27T23:40:08.318Z,21.10
2018-12-27T23:42:36.813Z,18.40
2018-12-27T23:45:05.333Z,19.47
2018-12-27T23:47:34.065Z,16.33
2018-12-27T23:50:02.716Z,20.17
2018-12-27T23:52:31.130Z,19.23
2018-12-27T23:55:00.283Z,25.43
2018-12-27T23:57:28.580Z,19.17
2018-12-27T23:59:57.183Z,17.13
